createdAt,value
2017-06-02T00:00:02.542Z,0
2017-06-02T00:01:11.501Z,0
2017-06-02T00:02:20.543Z,0
2017-06-02T00:03:29.497Z,0
2017-06-02T00:04:38.704Z,0
2017-06-02T00:05:47.658Z,0
2017-06-02T00:06:56.615Z,0
2017-06-02T00:08:05.661Z,0
2017-06-02T00:09:14.948Z,0
2017-06-02T00:10:24.157Z,0
2017-06-02T00:11:33.112Z,0
2017-06-02T00:12:42.066Z,0
2017-06-02T00:13:51.022Z,0
2017-06-02T00:14:59.987Z,0
2017-06-02T00:16:09.197Z,0
2017-06-02T00:17:18.161Z,0
2017-06-02T00:18:27.127Z,0
2017-06-02T00:19:36.086Z,0
2017-06-02T00:20:45.053Z,0
2017-06-02T00:21:54.265Z,0
2017-06-02T00:23:03.224Z,0
2017-06-02T00:24:12.178Z,0
2017-06-02T00:25:21.135Z,0
2017-06-02T00:26:30.092Z,0
2017-06-02T00:27:39.302Z,0
2017-06-02T00:28:48.258Z,0
2017-06-02T00:29:57.213Z,0
2017-06-02T00:31:06.172Z,0
2017-06-02T00:32:15.132Z,0
2017-06-02T00:33:24.348Z,0
2017-06-02T00:34:33.314Z,0
2017-06-02T00:35:42.280Z,0
2017-06-02T00:36:51.239Z,0
2017-06-02T00:38:00.196Z,0
2017-06-02T00:39:09.405Z,0
2017-06-02T00:40:18.363Z,0
2017-06-02T00:41:27.320Z,0
2017-06-02T00:42:36.272Z,0
2017-06-02T00:43:45.224Z,0
2017-06-02T00:44:54.436Z,0
2017-06-02T00:46:03.394Z,0
2017-06-02T00:47:12.697Z,0
2017-06-02T00:48:21.979Z,0
2017-06-02T00:49:30.937Z,0
2017-06-02T00:50:40.143Z,0
2017-06-02T00:51:49.101Z,0
2017-06-02T00:52:58.062Z,0
2017-06-02T00:54:07.019Z,0
2017-06-02T00:55:15.977Z,0
2017-06-02T00:56:25.184Z,0
2017-06-02T00:57:34.140Z,0
2017-06-02T00:58:43.096Z,0
2017-06-02T00:59:52.058Z,0
2017-06-02T01:01:01.017Z,0
2017-06-02T01:02:10.566Z,0
2017-06-02T01:03:19.525Z,0
2017-06-02T01:04:28.483Z,0
2017-06-02T01:05:37.445Z,0
2017-06-02T01:06:46.398Z,0
2017-06-02T01:07:55.605Z,0
2017-06-02T01:09:04.565Z,0
2017-06-02T01:10:13.523Z,0
2017-06-02T01:11:22.481Z,0
2017-06-02T01:12:31.439Z,0
2017-06-02T01:13:40.647Z,0
2017-06-02T01:14:49.600Z,0
2017-06-02T01:15:58.565Z,0
2017-06-02T01:17:07.526Z,0
2017-06-02T01:18:16.485Z,0
2017-06-02T01:19:25.701Z,0
2017-06-02T01:20:34.656Z,0
2017-06-02T01:21:43.620Z,0
2017-06-02T01:22:52.575Z,0
2017-06-02T01:24:01.537Z,0
2017-06-02T01:25:10.796Z,0
2017-06-02T01:26:19.752Z,0
2017-06-02T01:27:28.711Z,0
2017-06-02T01:28:37.664Z,0
2017-06-02T01:29:46.620Z,0
2017-06-02T01:30:55.829Z,0
2017-06-02T01:32:04.785Z,0
2017-06-02T01:33:13.740Z,0
2017-06-02T01:34:22.700Z,0
2017-06-02T01:35:31.656Z,0
2017-06-02T01:36:40.914Z,0
2017-06-02T01:37:49.877Z,0
2017-06-02T01:38:58.841Z,0
2017-06-02T01:40:07.805Z,0
2017-06-02T01:41:17.101Z,0
2017-06-02T01:42:26.356Z,0
2017-06-02T01:43:35.641Z,0
2017-06-02T01:44:44.601Z,0
2017-06-02T01:45:53.554Z,0
2017-06-02T01:47:02.510Z,0
2017-06-02T01:48:11.721Z,0
2017-06-02T01:49:20.680Z,0
2017-06-02T01:50:29.646Z,0
2017-06-02T01:51:38.607Z,0
2017-06-02T01:52:47.564Z,0
2017-06-02T01:53:56.772Z,0
2017-06-02T01:55:05.730Z,0
2017-06-02T01:56:14.684Z,0
2017-06-02T01:57:23.636Z,0
2017-06-02T01:58:32.593Z,0
2017-06-02T01:59:41.849Z,0
2017-06-02T02:00:50.811Z,0
2017-06-02T02:01:59.771Z,0
2017-06-02T02:03:08.734Z,0
2017-06-02T02:04:17.696Z,0
2017-06-02T02:05:26.999Z,0
2017-06-02T02:06:35.962Z,0
2017-06-02T02:07:44.918Z,0
2017-06-02T02:08:53.872Z,0
2017-06-02T02:10:02.826Z,0
2017-06-02T02:11:12.087Z,0
2017-06-02T02:12:21.055Z,0
2017-06-02T02:13:30.018Z,0
2017-06-02T02:14:38.976Z,0
2017-06-02T02:15:47.938Z,0
2017-06-02T02:16:57.469Z,0
2017-06-02T02:18:06.431Z,0
2017-06-02T02:19:15.389Z,0
2017-06-02T02:20:24.347Z,0
2017-06-02T02:21:33.301Z,0
2017-06-02T02:22:42.506Z,0
2017-06-02T02:23:51.460Z,0
2017-06-02T02:25:00.414Z,0
2017-06-02T02:26:09.375Z,0
2017-06-02T02:27:18.331Z,0
2017-06-02T02:28:27.546Z,0
2017-06-02T02:29:36.516Z,0
2017-06-02T02:30:45.523Z,0
2017-06-02T02:31:54.482Z,0
2017-06-02T02:33:03.444Z,0
2017-06-02T02:34:12.707Z,0
2017-06-02T02:35:21.660Z,0
2017-06-02T02:36:30.705Z,0
2017-06-02T02:37:39.663Z,0
2017-06-02T02:38:48.616Z,0
2017-06-02T02:39:57.821Z,0
2017-06-02T02:41:06.782Z,0
2017-06-02T02:42:16.060Z,0
2017-06-02T02:43:25.023Z,0
2017-06-02T02:44:33.982Z,0
2017-06-02T02:45:43.245Z,0
2017-06-02T02:46:52.226Z,0
2017-06-02T02:48:01.183Z,0
2017-06-02T02:49:10.138Z,0
2017-06-02T02:50:19.093Z,0
2017-06-02T02:51:28.296Z,0
2017-06-02T02:52:37.308Z,0
2017-06-02T02:53:46.272Z,0
2017-06-02T02:54:55.230Z,0
2017-06-02T02:56:04.190Z,0
2017-06-02T02:57:13.395Z,0
2017-06-02T02:58:22.351Z,0
2017-06-02T02:59:31.303Z,0
2017-06-02T03:00:40.352Z,0
2017-06-02T03:01:49.313Z,0
2017-06-02T03:03:01.603Z,0
2017-06-02T03:04:10.565Z,0
2017-06-02T03:05:19.519Z,0
2017-06-02T03:06:28.474Z,0
2017-06-02T03:07:37.429Z,0
2017-06-02T03:08:46.682Z,0
2017-06-02T03:09:55.636Z,0
2017-06-02T03:11:04.592Z,0
2017-06-02T03:12:13.544Z,0
2017-06-02T03:13:22.499Z,0
2017-06-02T03:14:31.704Z,0
2017-06-02T03:15:40.673Z,0
2017-06-02T03:16:49.644Z,0
2017-06-02T03:17:58.695Z,0
2017-06-02T03:19:07.651Z,0
2017-06-02T03:20:17.199Z,0
2017-06-02T03:21:26.165Z,0
2017-06-02T03:22:35.124Z,0
2017-06-02T03:23:44.077Z,0
2017-06-02T03:24:53.034Z,0
2017-06-02T03:26:02.244Z,0
2017-06-02T03:27:11.199Z,5
2017-06-02T03:28:20.159Z,5
2017-06-02T03:29:29.119Z,5
2017-06-02T03:30:38.077Z,5
2017-06-02T03:31:47.290Z,5
2017-06-02T03:32:56.256Z,5
2017-06-02T03:34:05.224Z,5
2017-06-02T03:35:14.178Z,5
2017-06-02T03:36:23.133Z,5
2017-06-02T03:37:32.334Z,5
2017-06-02T03:38:41.287Z,5
2017-06-02T03:39:50.244Z,5
2017-06-02T03:40:59.199Z,5
2017-06-02T03:42:08.162Z,5
2017-06-02T03:43:17.456Z,5
2017-06-02T03:44:26.506Z,5
2017-06-02T03:45:35.561Z,5
2017-06-02T03:46:44.519Z,5
2017-06-02T03:47:53.477Z,5
2017-06-02T03:49:02.681Z,5
2017-06-02T03:50:11.722Z,5
2017-06-02T03:51:20.680Z,5
2017-06-02T03:52:29.637Z,5
2017-06-02T03:53:38.594Z,5
2017-06-02T03:54:48.542Z,5
2017-06-02T03:55:57.498Z,5
2017-06-02T03:57:06.454Z,5
2017-06-02T03:58:15.407Z,10
2017-06-02T03:59:24.362Z,10
2017-06-02T04:00:33.573Z,10
2017-06-02T04:01:42.526Z,10
2017-06-02T04:02:51.483Z,10
2017-06-02T04:04:00.443Z,10
2017-06-02T04:05:09.407Z,10
2017-06-02T04:06:18.616Z,10
2017-06-02T04:07:27.570Z,10
2017-06-02T04:08:36.528Z,10
2017-06-02T04:09:45.484Z,10
2017-06-02T04:10:54.440Z,10
2017-06-02T04:12:03.639Z,10
2017-06-02T04:13:12.605Z,10
2017-06-02T04:14:21.562Z,10
2017-06-02T04:15:30.519Z,10
2017-06-02T04:16:39.476Z,10
2017-06-02T04:17:48.770Z,10
2017-06-02T04:18:57.728Z,10
2017-06-02T04:20:06.690Z,10
2017-06-02T04:21:15.651Z,10
2017-06-02T04:22:24.609Z,10
2017-06-02T04:23:33.817Z,10
2017-06-02T04:24:42.779Z,10
2017-06-02T04:25:51.738Z,10
2017-06-02T04:27:00.694Z,15
2017-06-02T04:28:09.652Z,15
2017-06-02T04:29:18.877Z,15
2017-06-02T04:30:27.834Z,15
2017-06-02T04:31:37.120Z,15
2017-06-02T04:32:46.076Z,15
2017-06-02T04:33:55.030Z,15
2017-06-02T04:35:04.240Z,15
2017-06-02T04:36:13.208Z,15
2017-06-02T04:37:22.168Z,15
2017-06-02T04:38:31.124Z,15
2017-06-02T04:39:40.090Z,15
2017-06-02T04:40:49.300Z,15
2017-06-02T04:41:58.257Z,15
2017-06-02T04:43:07.214Z,15
2017-06-02T04:44:16.171Z,15
2017-06-02T04:45:25.128Z,15
2017-06-02T04:46:34.388Z,15
2017-06-02T04:47:43.345Z,15
2017-06-02T04:48:52.300Z,15
2017-06-02T04:50:01.264Z,20
2017-06-02T04:51:10.218Z,20
2017-06-02T04:52:19.430Z,20
2017-06-02T04:53:28.382Z,20
2017-06-02T04:54:37.338Z,20
2017-06-02T04:55:46.294Z,20
2017-06-02T04:56:55.252Z,20
2017-06-02T04:58:04.468Z,20
2017-06-02T04:59:13.427Z,20
2017-06-02T05:00:22.384Z,20
2017-06-02T05:01:31.343Z,20
2017-06-02T05:02:40.297Z,20
2017-06-02T05:03:49.503Z,20
2017-06-02T05:04:58.459Z,20
2017-06-02T05:06:07.416Z,20
2017-06-02T05:07:16.374Z,20
2017-06-02T05:08:25.345Z,20
2017-06-02T05:09:34.561Z,20
2017-06-02T05:10:43.513Z,20
2017-06-02T05:11:52.468Z,20
2017-06-02T05:13:01.431Z,20
2017-06-02T05:14:10.480Z,25
2017-06-02T05:15:20.014Z,25
2017-06-02T05:16:28.968Z,25
2017-06-02T05:17:37.930Z,25
2017-06-02T05:18:46.883Z,25
2017-06-02T05:19:56.162Z,25
2017-06-02T05:21:05.370Z,25
2017-06-02T05:22:14.339Z,25
2017-06-02T05:23:23.301Z,25
2017-06-02T05:24:32.257Z,25
2017-06-02T05:25:41.213Z,25
2017-06-02T05:26:50.420Z,25
2017-06-02T05:27:59.381Z,25
2017-06-02T05:29:08.342Z,25
2017-06-02T05:30:17.312Z,25
2017-06-02T05:31:26.272Z,25
2017-06-02T05:32:35.482Z,25
2017-06-02T05:33:44.438Z,30
2017-06-02T05:34:53.393Z,30
2017-06-02T05:36:02.419Z,30
2017-06-02T05:37:11.378Z,30
2017-06-02T05:38:20.582Z,30
2017-06-02T05:39:29.539Z,30
2017-06-02T05:40:38.502Z,30
2017-06-02T05:41:47.463Z,30
2017-06-02T05:42:56.416Z,30
2017-06-02T05:44:05.641Z,30
2017-06-02T05:45:14.949Z,30
2017-06-02T05:46:23.907Z,30
2017-06-02T05:47:32.866Z,30
2017-06-02T05:48:41.822Z,30
2017-06-02T05:49:51.087Z,35
2017-06-02T05:51:00.055Z,30
2017-06-02T05:52:09.025Z,30
2017-06-02T05:53:17.980Z,30
2017-06-02T05:54:26.937Z,30
2017-06-02T05:55:36.143Z,30
2017-06-02T05:56:45.103Z,30
2017-06-02T05:57:54.063Z,30
2017-06-02T05:59:03.023Z,30
2017-06-02T06:00:11.977Z,30
2017-06-02T06:01:21.186Z,30
2017-06-02T06:02:30.148Z,60
2017-06-02T06:03:39.106Z,130
2017-06-02T06:04:48.061Z,140
2017-06-02T06:05:57.024Z,170
2017-06-02T06:07:06.230Z,110
2017-06-02T06:08:15.188Z,45
2017-06-02T06:09:24.148Z,35
2017-06-02T06:10:33.106Z,35
2017-06-02T06:11:42.065Z,35
2017-06-02T06:12:51.271Z,40
2017-06-02T06:14:00.232Z,65
2017-06-02T06:15:09.193Z,60
2017-06-02T06:16:18.150Z,40
2017-06-02T06:17:27.107Z,35
2017-06-02T06:18:36.318Z,35
2017-06-02T06:19:45.280Z,40
2017-06-02T06:20:54.250Z,40
2017-06-02T06:22:03.293Z,40
2017-06-02T06:23:12.252Z,40
2017-06-02T06:24:21.608Z,40
2017-06-02T06:25:30.568Z,40
2017-06-02T06:26:39.525Z,40
2017-06-02T06:27:48.484Z,40
2017-06-02T06:28:57.441Z,40
2017-06-02T06:30:06.651Z,40
2017-06-02T06:31:15.613Z,40
2017-06-02T06:32:24.573Z,40
2017-06-02T06:33:33.532Z,45
2017-06-02T06:34:42.498Z,45
2017-06-02T06:35:51.711Z,45
2017-06-02T06:37:00.765Z,45
2017-06-02T06:38:09.723Z,45
2017-06-02T06:39:18.681Z,45
2017-06-02T06:40:27.641Z,45
2017-06-02T06:41:36.844Z,45
2017-06-02T06:42:45.806Z,45
2017-06-02T06:43:54.772Z,45
2017-06-02T06:45:03.729Z,45
2017-06-02T06:46:12.686Z,45
2017-06-02T06:47:21.892Z,45
2017-06-02T06:48:30.843Z,45
2017-06-02T06:49:39.804Z,45
2017-06-02T06:50:48.759Z,50
2017-06-02T06:51:57.716Z,50
2017-06-02T06:53:06.936Z,50
2017-06-02T06:54:15.902Z,50
2017-06-02T06:55:24.865Z,50
2017-06-02T06:56:33.824Z,50
2017-06-02T06:57:42.788Z,50
2017-06-02T06:58:52.001Z,50
2017-06-02T07:00:00.958Z,50
2017-06-02T07:01:10.009Z,50
2017-06-02T07:02:18.965Z,50
2017-06-02T07:03:27.923Z,50
2017-06-02T07:04:37.221Z,50
2017-06-02T07:05:46.180Z,50
2017-06-02T07:06:55.142Z,50
2017-06-02T07:08:04.106Z,50
2017-06-02T07:09:13.071Z,50
2017-06-02T07:10:22.288Z,50
2017-06-02T07:11:31.246Z,50
2017-06-02T07:12:40.217Z,50
2017-06-02T07:13:49.236Z,55
2017-06-02T07:14:58.199Z,55
2017-06-02T07:16:07.402Z,55
2017-06-02T07:17:16.356Z,55
2017-06-02T07:18:25.320Z,55
2017-06-02T07:19:34.276Z,55
2017-06-02T07:20:43.236Z,55
2017-06-02T07:21:52.449Z,55
2017-06-02T07:23:01.406Z,55
2017-06-02T07:24:10.364Z,55
2017-06-02T07:25:19.321Z,55
2017-06-02T07:26:28.285Z,55
2017-06-02T07:27:37.584Z,55
2017-06-02T07:28:46.545Z,55
2017-06-02T07:29:55.506Z,55
2017-06-02T07:31:04.475Z,50
2017-06-02T07:32:13.431Z,55
2017-06-02T07:33:22.652Z,55
2017-06-02T07:34:31.607Z,55
2017-06-02T07:35:40.561Z,55
2017-06-02T07:36:49.520Z,55
2017-06-02T07:37:58.804Z,55
2017-06-02T07:39:08.016Z,55
2017-06-02T07:40:17.313Z,55
2017-06-02T07:41:26.285Z,55
2017-06-02T07:42:35.249Z,55
2017-06-02T07:43:44.297Z,55
2017-06-02T07:44:53.502Z,55
2017-06-02T07:46:02.469Z,55
2017-06-02T07:47:11.438Z,55
2017-06-02T07:48:20.394Z,55
2017-06-02T07:49:29.347Z,55
2017-06-02T07:50:38.561Z,55
2017-06-02T07:51:47.520Z,55
2017-06-02T07:52:56.478Z,55
2017-06-02T07:54:05.440Z,55
2017-06-02T07:55:14.394Z,55
2017-06-02T07:56:23.601Z,55
2017-06-02T07:57:32.561Z,55
2017-06-02T07:58:41.522Z,55
2017-06-02T07:59:50.480Z,55
2017-06-02T08:00:59.439Z,55
2017-06-02T08:02:08.647Z,55
2017-06-02T08:03:17.615Z,55
2017-06-02T08:04:26.593Z,55
2017-06-02T08:05:35.555Z,55
2017-06-02T08:06:44.515Z,55
2017-06-02T08:07:53.727Z,55
2017-06-02T08:09:02.758Z,55
2017-06-02T08:10:11.718Z,55
2017-06-02T08:11:20.676Z,55
2017-06-02T08:12:29.641Z,55
2017-06-02T08:13:38.922Z,55
2017-06-02T08:14:47.881Z,55
2017-06-02T08:15:56.837Z,55
2017-06-02T08:17:05.795Z,55
2017-06-02T08:18:15.099Z,55
2017-06-02T08:19:24.405Z,55
2017-06-02T08:20:33.366Z,55
2017-06-02T08:21:42.332Z,55
2017-06-02T08:22:51.288Z,60
2017-06-02T08:24:00.247Z,60
2017-06-02T08:25:09.458Z,60
2017-06-02T08:26:18.426Z,60
2017-06-02T08:27:27.396Z,60
2017-06-02T08:28:36.684Z,60
2017-06-02T08:29:45.643Z,60
2017-06-02T08:30:54.900Z,60
2017-06-02T08:32:03.862Z,60
2017-06-02T08:33:12.822Z,60
2017-06-02T08:34:21.784Z,60
2017-06-02T08:35:30.746Z,60
2017-06-02T08:36:39.958Z,60
2017-06-02T08:37:48.920Z,60
2017-06-02T08:38:57.880Z,60
2017-06-02T08:40:06.840Z,60
2017-06-02T08:41:15.804Z,60
2017-06-02T08:42:25.018Z,60
2017-06-02T08:43:33.978Z,60
2017-06-02T08:44:42.934Z,65
2017-06-02T08:45:51.910Z,65
2017-06-02T08:47:00.874Z,65
2017-06-02T08:48:10.082Z,65
2017-06-02T08:49:19.044Z,65
2017-06-02T08:50:28.332Z,65
2017-06-02T08:51:37.290Z,65
2017-06-02T08:52:46.245Z,65
2017-06-02T08:53:55.458Z,65
2017-06-02T08:55:04.428Z,65
2017-06-02T08:56:13.712Z,65
2017-06-02T08:57:22.676Z,65
2017-06-02T08:58:31.636Z,65
2017-06-02T08:59:40.851Z,65
2017-06-02T09:00:49.814Z,65
2017-06-02T09:01:58.778Z,60
2017-06-02T09:03:07.740Z,60
2017-06-02T09:04:16.705Z,60
2017-06-02T09:05:25.917Z,60
2017-06-02T09:06:34.878Z,60
2017-06-02T09:07:43.844Z,60
2017-06-02T09:08:52.805Z,60
2017-06-02T09:10:01.856Z,60
2017-06-02T09:11:11.392Z,60
2017-06-02T09:12:20.355Z,65
2017-06-02T09:13:29.313Z,65
2017-06-02T09:14:38.274Z,65
2017-06-02T09:15:47.236Z,65
2017-06-02T09:16:56.451Z,65
2017-06-02T09:18:05.409Z,65
2017-06-02T09:19:14.378Z,70
2017-06-02T09:20:23.342Z,75
2017-06-02T09:21:32.324Z,75
2017-06-02T09:22:41.531Z,75
2017-06-02T09:23:50.492Z,70
2017-06-02T09:24:59.460Z,65
2017-06-02T09:26:08.422Z,65
2017-06-02T09:27:17.386Z,65
2017-06-02T09:28:26.598Z,65
2017-06-02T09:29:35.564Z,70
2017-06-02T09:30:44.530Z,70
2017-06-02T09:31:53.488Z,65
2017-06-02T09:33:02.449Z,60
2017-06-02T09:34:11.660Z,60
2017-06-02T09:35:20.626Z,60
2017-06-02T09:36:29.593Z,60
2017-06-02T09:37:38.553Z,60
2017-06-02T09:38:47.524Z,60
2017-06-02T09:39:56.735Z,60
2017-06-02T09:41:05.698Z,60
2017-06-02T09:42:15.000Z,60
2017-06-02T09:43:23.970Z,60
2017-06-02T09:44:32.934Z,60
2017-06-02T09:45:42.198Z,60
2017-06-02T09:46:51.158Z,60
2017-06-02T09:48:00.118Z,60
2017-06-02T09:49:09.086Z,60
2017-06-02T09:50:18.052Z,60
2017-06-02T09:51:27.262Z,60
2017-06-02T09:52:36.238Z,60
2017-06-02T09:53:45.207Z,60
2017-06-02T09:54:54.171Z,60
2017-06-02T09:56:03.137Z,60
2017-06-02T09:57:12.689Z,60
2017-06-02T09:58:21.654Z,60
2017-06-02T09:59:30.616Z,60
2017-06-02T10:00:39.576Z,60
2017-06-02T10:01:48.539Z,60
2017-06-02T10:02:57.748Z,60
2017-06-02T10:04:06.712Z,60
2017-06-02T10:05:15.677Z,60
2017-06-02T10:06:24.640Z,65
2017-06-02T10:07:33.603Z,65
2017-06-02T10:08:42.812Z,65
2017-06-02T10:09:51.774Z,65
2017-06-02T10:11:00.734Z,65
2017-06-02T10:12:09.694Z,65
2017-06-02T10:13:18.652Z,65
2017-06-02T10:14:27.862Z,65
2017-06-02T10:15:36.826Z,65
2017-06-02T10:16:45.804Z,65
2017-06-02T10:17:54.766Z,65
2017-06-02T10:19:03.729Z,65
2017-06-02T10:20:12.940Z,65
2017-06-02T10:21:21.932Z,65
2017-06-02T10:22:30.910Z,65
2017-06-02T10:23:39.872Z,65
2017-06-02T10:24:48.836Z,65
2017-06-02T10:25:58.045Z,65
2017-06-02T10:27:07.101Z,65
2017-06-02T10:28:16.065Z,65
2017-06-02T10:29:25.032Z,65
2017-06-02T10:30:34.324Z,65
2017-06-02T10:31:43.568Z,65
2017-06-02T10:32:52.543Z,65
2017-06-02T10:34:01.508Z,65
2017-06-02T10:35:10.472Z,65
2017-06-02T10:36:19.434Z,65
2017-06-02T10:37:28.652Z,65
2017-06-02T10:38:37.618Z,65
2017-06-02T10:39:46.589Z,65
2017-06-02T10:40:55.553Z,65
2017-06-02T10:42:04.519Z,65
2017-06-02T10:43:13.740Z,65
2017-06-02T10:44:22.699Z,65
2017-06-02T10:45:31.659Z,65
2017-06-02T10:46:40.621Z,65
2017-06-02T10:47:49.581Z,65
2017-06-02T10:48:58.797Z,65
2017-06-02T10:50:07.777Z,65
2017-06-02T10:51:17.397Z,70
2017-06-02T10:52:26.360Z,65
2017-06-02T10:53:35.323Z,65
2017-06-02T10:54:44.536Z,65
2017-06-02T10:55:53.502Z,65
2017-06-02T10:57:02.487Z,65
2017-06-02T10:58:11.465Z,65
2017-06-02T10:59:20.439Z,65
2017-06-02T11:00:29.650Z,70
2017-06-02T11:01:38.615Z,65
2017-06-02T11:02:47.588Z,65
2017-06-02T11:03:56.563Z,65
2017-06-02T11:05:05.527Z,65
2017-06-02T11:06:14.745Z,65
2017-06-02T11:07:24.050Z,65
2017-06-02T11:08:33.018Z,65
2017-06-02T11:09:41.980Z,65
2017-06-02T11:10:50.940Z,60
2017-06-02T11:12:00.166Z,60
2017-06-02T11:13:09.132Z,65
2017-06-02T11:14:18.093Z,65
2017-06-02T11:15:27.053Z,65
2017-06-02T11:16:36.014Z,65
2017-06-02T11:17:45.228Z,65
2017-06-02T11:18:54.192Z,65
2017-06-02T11:20:03.156Z,65
2017-06-02T11:21:12.123Z,60
2017-06-02T11:22:21.090Z,60
2017-06-02T11:23:30.299Z,60
2017-06-02T11:24:39.259Z,60
2017-06-02T11:25:48.227Z,60
2017-06-02T11:26:57.191Z,60
2017-06-02T11:28:06.153Z,60
2017-06-02T11:29:15.367Z,65
2017-06-02T11:30:24.327Z,60
2017-06-02T11:31:33.296Z,65
2017-06-02T11:32:42.262Z,60
2017-06-02T11:33:51.225Z,60
2017-06-02T11:35:00.440Z,60
2017-06-02T11:36:09.410Z,60
2017-06-02T11:37:18.460Z,60
2017-06-02T11:38:27.423Z,60
2017-06-02T11:39:36.712Z,60
2017-06-02T11:40:45.928Z,60
2017-06-02T11:41:54.894Z,60
2017-06-02T11:43:03.855Z,60
2017-06-02T11:44:13.153Z,60
2017-06-02T11:45:22.121Z,60
2017-06-02T11:46:31.427Z,60
2017-06-02T11:47:40.386Z,60
2017-06-02T11:48:49.352Z,60
2017-06-02T11:49:58.318Z,60
2017-06-02T11:51:07.293Z,60
2017-06-02T11:52:16.506Z,60
2017-06-02T11:53:25.468Z,60
2017-06-02T11:54:34.435Z,60
2017-06-02T11:55:43.401Z,60
2017-06-02T11:56:52.357Z,60
2017-06-02T11:58:01.568Z,55
2017-06-02T11:59:10.534Z,60
2017-06-02T12:00:19.823Z,55
2017-06-02T12:01:28.787Z,55
2017-06-02T12:02:37.751Z,55
2017-06-02T12:03:46.969Z,55
2017-06-02T12:04:56.265Z,55
2017-06-02T12:06:05.230Z,55
2017-06-02T12:07:14.190Z,55
2017-06-02T12:08:23.158Z,55
2017-06-02T12:09:32.371Z,55
2017-06-02T12:10:41.332Z,55
2017-06-02T12:11:50.298Z,55
2017-06-02T12:12:59.264Z,55
2017-06-02T12:14:08.227Z,55
2017-06-02T12:15:17.440Z,55
2017-06-02T12:16:26.398Z,55
2017-06-02T12:17:35.430Z,55
2017-06-02T12:18:44.401Z,55
2017-06-02T12:19:53.361Z,55
2017-06-02T12:21:02.574Z,55
2017-06-02T12:22:11.533Z,55
2017-06-02T12:23:20.499Z,55
2017-06-02T12:24:29.460Z,55
2017-06-02T12:25:38.425Z,55
2017-06-02T12:26:47.730Z,55
2017-06-02T12:27:56.690Z,50
2017-06-02T12:29:05.653Z,50
2017-06-02T12:30:14.623Z,50
2017-06-02T12:31:23.584Z,50
2017-06-02T12:32:32.796Z,50
2017-06-02T12:33:41.767Z,50
2017-06-02T12:34:50.737Z,50
2017-06-02T12:35:59.698Z,50
2017-06-02T12:37:08.662Z,55
2017-06-02T12:38:17.879Z,55
2017-06-02T12:39:26.845Z,55
2017-06-02T12:40:35.808Z,55
2017-06-02T12:41:44.858Z,55
2017-06-02T12:42:53.923Z,55
2017-06-02T12:44:03.170Z,55
2017-06-02T12:45:12.133Z,55
2017-06-02T12:46:21.096Z,55
2017-06-02T12:47:30.230Z,55
2017-06-02T12:48:39.191Z,55
2017-06-02T12:49:48.402Z,55
2017-06-02T12:50:57.358Z,60
2017-06-02T12:52:06.324Z,60
2017-06-02T12:53:15.283Z,60
2017-06-02T12:54:24.252Z,60
2017-06-02T12:55:33.465Z,60
2017-06-02T12:56:42.521Z,65
2017-06-02T12:57:51.482Z,60
2017-06-02T12:59:00.449Z,60
2017-06-02T13:00:09.412Z,60
2017-06-02T13:01:18.628Z,60
2017-06-02T13:02:27.588Z,60
2017-06-02T13:03:36.546Z,65
2017-06-02T13:04:45.507Z,65
2017-06-02T13:05:54.470Z,65
2017-06-02T13:07:03.679Z,65
2017-06-02T13:08:12.639Z,65
2017-06-02T13:09:21.592Z,65
2017-06-02T13:10:30.553Z,65
2017-06-02T13:11:39.510Z,65
2017-06-02T13:12:48.719Z,65
2017-06-02T13:13:57.683Z,65
2017-06-02T13:15:06.642Z,65
2017-06-02T13:16:15.606Z,65
2017-06-02T13:17:24.571Z,65
2017-06-02T13:18:33.795Z,65
2017-06-02T13:19:42.758Z,65
2017-06-02T13:20:51.720Z,65
2017-06-02T13:22:00.681Z,65
2017-06-02T13:23:09.640Z,65
2017-06-02T13:24:18.856Z,65
2017-06-02T13:25:27.818Z,65
2017-06-02T13:26:36.780Z,65
2017-06-02T13:27:45.740Z,65
2017-06-02T13:28:54.700Z,65
2017-06-02T13:30:03.961Z,65
2017-06-02T13:31:13.251Z,65
2017-06-02T13:32:22.214Z,65
2017-06-02T13:33:31.172Z,65
2017-06-02T13:34:40.134Z,65
2017-06-02T13:35:49.355Z,65
2017-06-02T13:36:58.314Z,65
2017-06-02T13:38:07.278Z,65
2017-06-02T13:39:16.240Z,65
2017-06-02T13:40:25.194Z,65
2017-06-02T13:41:34.408Z,65
2017-06-02T13:42:43.374Z,65
2017-06-02T13:43:52.335Z,65
2017-06-02T13:45:01.296Z,65
2017-06-02T13:46:10.262Z,65
2017-06-02T13:47:19.470Z,65
2017-06-02T13:48:28.429Z,65
2017-06-02T13:49:37.392Z,65
2017-06-02T13:50:46.353Z,65
2017-06-02T13:51:55.403Z,65
2017-06-02T13:53:04.704Z,65
2017-06-02T13:54:13.749Z,65
2017-06-02T13:55:22.708Z,65
2017-06-02T13:56:31.676Z,65
2017-06-02T13:57:40.635Z,65
2017-06-02T13:58:49.899Z,65
2017-06-02T13:59:58.855Z,65
2017-06-02T14:01:07.813Z,65
2017-06-02T14:02:17.118Z,65
2017-06-02T14:03:26.088Z,65
2017-06-02T14:04:35.300Z,65
2017-06-02T14:05:44.261Z,65
2017-06-02T14:06:53.222Z,65
2017-06-02T14:08:02.182Z,65
2017-06-02T14:09:11.145Z,65
2017-06-02T14:10:20.356Z,65
2017-06-02T14:11:29.322Z,60
2017-06-02T14:12:38.298Z,60
2017-06-02T14:13:47.261Z,60
2017-06-02T14:14:56.219Z,60
2017-06-02T14:16:05.432Z,60
2017-06-02T14:17:14.390Z,60
2017-06-02T14:18:23.356Z,60
2017-06-02T14:19:32.320Z,60
2017-06-02T14:20:41.283Z,60
2017-06-02T14:21:50.499Z,60
2017-06-02T14:22:59.461Z,60
2017-06-02T14:24:08.421Z,60
2017-06-02T14:25:17.379Z,60
2017-06-02T14:26:26.344Z,60
2017-06-02T14:27:35.556Z,60
2017-06-02T14:28:44.522Z,60
2017-06-02T14:29:53.487Z,60
2017-06-02T14:31:02.447Z,60
2017-06-02T14:32:11.494Z,60
2017-06-02T14:33:20.714Z,60
2017-06-02T14:34:29.677Z,55
2017-06-02T14:35:38.642Z,55
2017-06-02T14:36:47.692Z,55
2017-06-02T14:37:56.650Z,55
2017-06-02T14:39:05.861Z,55
2017-06-02T14:40:14.824Z,55
2017-06-02T14:41:24.111Z,55
2017-06-02T14:42:33.074Z,55
2017-06-02T14:43:42.036Z,55
2017-06-02T14:44:51.251Z,55
2017-06-02T14:46:00.219Z,55
2017-06-02T14:47:09.180Z,55
2017-06-02T14:48:18.140Z,55
2017-06-02T14:49:27.110Z,55
2017-06-02T14:50:36.378Z,55
2017-06-02T14:51:45.429Z,55
2017-06-02T14:52:54.393Z,55
2017-06-02T14:54:03.356Z,55
2017-06-02T14:55:12.318Z,55
2017-06-02T14:56:21.577Z,55
2017-06-02T14:57:30.640Z,55
2017-06-02T14:58:39.599Z,55
2017-06-02T14:59:48.567Z,55
2017-06-02T15:00:57.528Z,55
2017-06-02T15:02:06.741Z,55
2017-06-02T15:03:15.709Z,55
2017-06-02T15:04:24.682Z,55
2017-06-02T15:05:33.647Z,55
2017-06-02T15:06:42.608Z,55
2017-06-02T15:07:51.824Z,55
2017-06-02T15:09:00.789Z,55
2017-06-02T15:10:09.757Z,55
2017-06-02T15:11:18.722Z,55
2017-06-02T15:12:27.684Z,55
2017-06-02T15:13:36.902Z,50
2017-06-02T15:14:45.865Z,50
2017-06-02T15:15:54.827Z,50
2017-06-02T15:17:03.796Z,50
2017-06-02T15:18:12.759Z,50
2017-06-02T15:19:21.995Z,50
2017-06-02T15:20:30.955Z,50
2017-06-02T15:21:39.925Z,50
2017-06-02T15:22:48.889Z,50
2017-06-02T15:23:57.937Z,50
2017-06-02T15:25:07.203Z,50
2017-06-02T15:26:16.163Z,50
2017-06-02T15:27:25.133Z,50
2017-06-02T15:28:34.094Z,50
2017-06-02T15:29:43.060Z,50
2017-06-02T15:30:52.330Z,50
2017-06-02T15:32:01.294Z,50
2017-06-02T15:33:10.254Z,50
2017-06-02T15:34:19.217Z,45
2017-06-02T15:35:28.178Z,45
2017-06-02T15:36:37.388Z,45
2017-06-02T15:37:46.352Z,45
2017-06-02T15:38:55.316Z,45
2017-06-02T15:40:04.282Z,45
2017-06-02T15:41:13.601Z,45
2017-06-02T15:42:22.869Z,45
2017-06-02T15:43:31.912Z,45
2017-06-02T15:44:40.964Z,45
2017-06-02T15:45:49.926Z,45
2017-06-02T15:46:58.888Z,45
2017-06-02T15:48:08.103Z,45
2017-06-02T15:49:17.405Z,40
2017-06-02T15:50:26.456Z,40
2017-06-02T15:51:35.415Z,40
2017-06-02T15:52:44.378Z,40
2017-06-02T15:53:53.637Z,40
2017-06-02T15:55:02.622Z,40
2017-06-02T15:56:11.586Z,40
2017-06-02T15:57:20.548Z,40
2017-06-02T15:58:29.508Z,40
2017-06-02T15:59:38.719Z,40
2017-06-02T16:00:47.681Z,40
2017-06-02T16:01:56.965Z,40
2017-06-02T16:03:05.925Z,35
2017-06-02T16:04:14.888Z,35
2017-06-02T16:05:24.106Z,35
2017-06-02T16:06:33.070Z,35
2017-06-02T16:07:42.035Z,35
2017-06-02T16:08:51.003Z,35
2017-06-02T16:09:59.966Z,35
2017-06-02T16:11:09.180Z,35
2017-06-02T16:12:18.146Z,35
2017-06-02T16:13:27.108Z,35
2017-06-02T16:14:36.071Z,35
2017-06-02T16:15:45.047Z,35
2017-06-02T16:16:54.580Z,35
2017-06-02T16:18:03.633Z,35
2017-06-02T16:19:12.598Z,30
2017-06-02T16:20:21.561Z,30
2017-06-02T16:21:30.520Z,30
2017-06-02T16:22:39.738Z,30
2017-06-02T16:23:48.702Z,30
2017-06-02T16:24:57.667Z,30
2017-06-02T16:26:06.636Z,30
2017-06-02T16:27:15.923Z,30
2017-06-02T16:28:25.139Z,30
2017-06-02T16:29:34.106Z,30
2017-06-02T16:30:43.082Z,30
2017-06-02T16:31:52.042Z,30